sensor_id;sensor_type;location;lat;lon;timestamp;temperature;humidity
20438;DHT22;17436;50.338;8.810;2022-08-03T00:00:18;22.10;1.00
20438;DHT22;17436;50.338;8.810;2022-08-03T00:02:45;22.10;1.00
20438;DHT22;17436;50.338;8.810;2022-08-03T00:05:13;22.10;1.00
20438;DHT22;17436;50.338;8.810;2022-08-03T00:07:40;22.10;1.00
20438;DHT22;17436;50.338;8.810;2022-08-03T00:10:07;22.10;1.00
20438;DHT22;17436;50.338;8.810;2022-08-03T00:12:34;22.00;1.00
20438;DHT22;17436;50.338;8.810;2022-08-03T00:15:01;22.00;1.00
20438;DHT22;17436;50.338;8.810;2022-08-03T00:17:28;21.90;1.00
20438;DHT22;17436;50.338;8.810;2022-08-03T00:19:55;21.80;1.00
20438;DHT22;17436;50.338;8.810;2022-08-03T00:22:23;21.80;1.00
20438;DHT22;17436;50.338;8.810;2022-08-03T00:24:49;21.70;1.00
20438;DHT22;17436;50.338;8.810;2022-08-03T00:27:20;21.60;1.00
20438;DHT22;17436;50.338;8.810;2022-08-03T00:29:48;21.70;1.00
20438;DHT22;17436;50.338;8.810;2022-08-03T00:32:15;21.60;1.00
20438;DHT22;17436;50.338;8.810;2022-08-03T00:34:41;21.40;1.00
20438;DHT22;17436;50.338;8.810;2022-08-03T00:37:08;21.50;1.00
20438;DHT22;17436;50.338;8.810;2022-08-03T00:39:36;21.50;1.00
20438;DHT22;17436;50.338;8.810;2022-08-03T00:42:04;21.40;1.00
20438;DHT22;17436;50.338;8.810;2022-08-03T00:44:30;21.40;1.00
20438;DHT22;17436;50.338;8.810;2022-08-03T00:46:57;21.40;1.00
20438;DHT22;17436;50.338;8.810;2022-08-03T00:49:24;21.20;1.00
20438;DHT22;17436;50.338;8.810;2022-08-03T00:51:51;21.10;1.00
20438;DHT22;17436;50.338;8.810;2022-08-03T00:54:19;21.00;1.00
20438;DHT22;17436;50.338;8.810;2022-08-03T00:56:47;21.20;1.00
20438;DHT22;17436;50.338;8.810;2022-08-03T00:59:16;21.20;1.00
20438;DHT22;17436;50.338;8.810;2022-08-03T01:01:44;21.10;1.00
20438;DHT22;17436;50.338;8.810;2022-08-03T01:04:11;21.00;1.00
20438;DHT22;17436;50.338;8.810;2022-08-03T01:06:47;21.00;1.00
20438;DHT22;17436;50.338;8.810;2022-08-03T01:09:21;20.70;1.00
20438;DHT22;17436;50.338;8.810;2022-08-03T01:11:57;20.60;1.00
20438;DHT22;17436;50.338;8.810;2022-08-03T01:14:32;20.40;1.00
20438;DHT22;17436;50.338;8.810;2022-08-03T01:17:07;20.40;1.00
20438;DHT22;17436;50.338;8.810;2022-08-03T01:19:44;20.40;1.00
20438;DHT22;17436;50.338;8.810;2022-08-03T01:25:30;20.20;1.10
20438;DHT22;17436;50.338;8.810;2022-08-03T01:28:16;20.20;1.90
20438;DHT22;17436;50.338;8.810;2022-08-03T01:30:47;20.30;3.20
20438;DHT22;17436;50.338;8.810;2022-08-03T01:33:19;20.30;4.50
20438;DHT22;17436;50.338;8.810;2022-08-03T01:35:53;20.20;6.50
20438;DHT22;17436;50.338;8.810;2022-08-03T01:38:27;20.30;6.20
20438;DHT22;17436;50.338;8.810;2022-08-03T01:40:55;20.40;6.00
20438;DHT22;17436;50.338;8.810;2022-08-03T01:43:25;20.30;6.20
20438;DHT22;17436;50.338;8.810;2022-08-03T01:45:55;20.50;4.70
20438;DHT22;17436;50.338;8.810;2022-08-03T01:48:23;20.70;3.00
20438;DHT22;17436;50.338;8.810;2022-08-03T01:50:53;20.80;2.20
20438;DHT22;17436;50.338;8.810;2022-08-03T01:53:22;20.90;1.90
20438;DHT22;17436;50.338;8.810;2022-08-03T01:55:53;20.90;1.90
20438;DHT22;17436;50.338;8.810;2022-08-03T01:58:21;20.90;2.40
20438;DHT22;17436;50.338;8.810;2022-08-03T02:00:50;20.80;2.40
20438;DHT22;17436;50.338;8.810;2022-08-03T02:03:20;20.80;2.40
20438;DHT22;17436;50.338;8.810;2022-08-03T02:05:48;20.70;1.00
20438;DHT22;17436;50.338;8.810;2022-08-03T02:08:17;20.40;1.00
20438;DHT22;17436;50.338;8.810;2022-08-03T02:10:44;20.50;2.80
20438;DHT22;17436;50.338;8.810;2022-08-03T02:13:13;20.60;2.80
20438;DHT22;17436;50.338;8.810;2022-08-03T02:15:42;20.50;6.00
20438;DHT22;17436;50.338;8.810;2022-08-03T02:18:10;20.50;6.90
20438;DHT22;17436;50.338;8.810;2022-08-03T02:20:41;20.50;7.60
20438;DHT22;17436;50.338;8.810;2022-08-03T02:23:08;20.50;6.80
20438;DHT22;17436;50.338;8.810;2022-08-03T02:25:40;20.40;8.00
20438;DHT22;17436;50.338;8.810;2022-08-03T02:28:11;20.30;8.40
20438;DHT22;17436;50.338;8.810;2022-08-03T02:30:43;20.30;7.80
20438;DHT22;17436;50.338;8.810;2022-08-03T02:33:17;20.30;7.60
20438;DHT22;17436;50.338;8.810;2022-08-03T02:35:48;20.30;7.00
20438;DHT22;17436;50.338;8.810;2022-08-03T02:38:19;20.40;6.70
20438;DHT22;17436;50.338;8.810;2022-08-03T02:40:48;20.20;7.90
20438;DHT22;17436;50.338;8.810;2022-08-03T02:43:20;20.20;8.60
20438;DHT22;17436;50.338;8.810;2022-08-03T02:45:50;20.10;8.40
20438;DHT22;17436;50.338;8.810;2022-08-03T02:48:20;20.20;7.90
20438;DHT22;17436;50.338;8.810;2022-08-03T02:50:52;20.20;7.80
20438;DHT22;17436;50.338;8.810;2022-08-03T02:53:21;20.20;8.60
20438;DHT22;17436;50.338;8.810;2022-08-03T02:55:50;20.20;8.50
20438;DHT22;17436;50.338;8.810;2022-08-03T02:58:18;20.10;8.80
20438;DHT22;17436;50.338;8.810;2022-08-03T03:00:47;20.10;8.20
20438;DHT22;17436;50.338;8.810;2022-08-03T03:03:14;20.00;8.40
20438;DHT22;17436;50.338;8.810;2022-08-03T03:05:41;20.00;8.20
20438;DHT22;17436;50.338;8.810;2022-08-03T03:08:11;20.00;8.30
20438;DHT22;17436;50.338;8.810;2022-08-03T03:10:40;20.10;8.10
20438;DHT22;17436;50.338;8.810;2022-08-03T03:13:07;20.00;8.30
20438;DHT22;17436;50.338;8.810;2022-08-03T03:15:35;20.00;8.30
20438;DHT22;17436;50.338;8.810;2022-08-03T03:18:04;19.90;8.90
20438;DHT22;17436;50.338;8.810;2022-08-03T03:20:35;19.90;9.10
20438;DHT22;17436;50.338;8.810;2022-08-03T03:23:03;19.90;9.40
20438;DHT22;17436;50.338;8.810;2022-08-03T03:25:32;19.90;10.00
20438;DHT22;17436;50.338;8.810;2022-08-03T03:27:59;19.90;10.20
20438;DHT22;17436;50.338;8.810;2022-08-03T03:30:27;19.80;10.60
20438;DHT22;17436;50.338;8.810;2022-08-03T03:32:57;19.80;10.60
20438;DHT22;17436;50.338;8.810;2022-08-03T03:35:25;19.70;10.60
20438;DHT22;17436;50.338;8.810;2022-08-03T03:37:52;19.70;10.60
20438;DHT22;17436;50.338;8.810;2022-08-03T03:40:19;19.70;10.60
20438;DHT22;17436;50.338;8.810;2022-08-03T03:42:47;19.60;10.50
20438;DHT22;17436;50.338;8.810;2022-08-03T03:45:16;19.70;10.60
20438;DHT22;17436;50.338;8.810;2022-08-03T03:47:46;19.70;10.60
20438;DHT22;17436;50.338;8.810;2022-08-03T03:50:14;19.70;10.60
20438;DHT22;17436;50.338;8.810;2022-08-03T03:52:43;19.80;10.60
20438;DHT22;17436;50.338;8.810;2022-08-03T03:55:15;19.80;10.60
20438;DHT22;17436;50.338;8.810;2022-08-03T03:57:42;19.70;10.60
20438;DHT22;17436;50.338;8.810;2022-08-03T04:00:12;19.70;10.60
20438;DHT22;17436;50.338;8.810;2022-08-03T04:02:40;19.60;11.60
20438;DHT22;17436;50.338;8.810;2022-08-03T04:05:07;19.60;12.40
20438;DHT22;17436;50.338;8.810;2022-08-03T04:07:57;19.60;12.50
20438;DHT22;17436;50.338;8.810;2022-08-03T04:10:43;19.60;12.60
20438;DHT22;17436;50.338;8.810;2022-08-03T04:13:30;19.60;13.90
20438;DHT22;17436;50.338;8.810;2022-08-03T04:16:00;19.50;14.70
20438;DHT22;17436;50.338;8.810;2022-08-03T04:18:29;19.50;13.00
20438;DHT22;17436;50.338;8.810;2022-08-03T04:20:58;19.40;13.60
20438;DHT22;17436;50.338;8.810;2022-08-03T04:23:30;19.40;16.20
20438;DHT22;17436;50.338;8.810;2022-08-03T04:25:58;19.50;16.20
20438;DHT22;17436;50.338;8.810;2022-08-03T04:28:27;19.50;17.30
20438;DHT22;17436;50.338;8.810;2022-08-03T04:30:55;19.50;17.00
20438;DHT22;17436;50.338;8.810;2022-08-03T04:33:25;19.50;12.20
20438;DHT22;17436;50.338;8.810;2022-08-03T04:35:54;19.50;13.50
20438;DHT22;17436;50.338;8.810;2022-08-03T04:38:24;19.50;15.70
20438;DHT22;17436;50.338;8.810;2022-08-03T04:40:51;19.60;17.60
20438;DHT22;17436;50.338;8.810;2022-08-03T04:43:21;19.60;16.40
20438;DHT22;17436;50.338;8.810;2022-08-03T04:45:50;19.70;13.50
20438;DHT22;17436;50.338;8.810;2022-08-03T04:48:18;19.70;12.10
20438;DHT22;17436;50.338;8.810;2022-08-03T04:50:48;19.80;11.80
20438;DHT22;17436;50.338;8.810;2022-08-03T04:53:16;19.80;12.80
20438;DHT22;17436;50.338;8.810;2022-08-03T04:55:43;20.00;12.80
20438;DHT22;17436;50.338;8.810;2022-08-03T04:58:10;20.00;11.90
20438;DHT22;17436;50.338;8.810;2022-08-03T05:00:37;20.10;12.30
20438;DHT22;17436;50.338;8.810;2022-08-03T05:03:04;20.00;14.40
20438;DHT22;17436;50.338;8.810;2022-08-03T05:05:30;20.00;18.00
20438;DHT22;17436;50.338;8.810;2022-08-03T05:07:58;20.10;20.50
20438;DHT22;17436;50.338;8.810;2022-08-03T05:10:25;20.30;19.60
20438;DHT22;17436;50.338;8.810;2022-08-03T05:12:52;20.70;17.60
20438;DHT22;17436;50.338;8.810;2022-08-03T05:15:19;21.20;13.70
20438;DHT22;17436;50.338;8.810;2022-08-03T05:17:47;22.00;9.70
20438;DHT22;17436;50.338;8.810;2022-08-03T05:20:13;22.00;7.40
20438;DHT22;17436;50.338;8.810;2022-08-03T05:22:40;22.50;6.10
20438;DHT22;17436;50.338;8.810;2022-08-03T05:25:08;22.90;2.70
20438;DHT22;17436;50.338;8.810;2022-08-03T05:27:35;23.00;3.30
20438;DHT22;17436;50.338;8.810;2022-08-03T05:30:03;23.00;2.20
20438;DHT22;17436;50.338;8.810;2022-08-03T05:32:30;23.00;1.30
20438;DHT22;17436;50.338;8.810;2022-08-03T05:34:57;23.10;1.00
20438;DHT22;17436;50.338;8.810;2022-08-03T05:37:25;23.10;1.00
20438;DHT22;17436;50.338;8.810;2022-08-03T05:39:53;23.00;1.00
20438;DHT22;17436;50.338;8.810;2022-08-03T05:42:21;23.00;1.40
20438;DHT22;17436;50.338;8.810;2022-08-03T05:44:47;22.70;1.50
20438;DHT22;17436;50.338;8.810;2022-08-03T05:47:14;22.70;2.50
20438;DHT22;17436;50.338;8.810;2022-08-03T05:49:41;22.90;2.10
20438;DHT22;17436;50.338;8.810;2022-08-03T05:52:08;22.70;2.60
20438;DHT22;17436;50.338;8.810;2022-08-03T05:54:34;22.70;3.20
20438;DHT22;17436;50.338;8.810;2022-08-03T05:57:01;22.80;2.80
20438;DHT22;17436;50.338;8.810;2022-08-03T05:59:29;22.60;5.10
20438;DHT22;17436;50.338;8.810;2022-08-03T06:01:56;22.60;4.80
20438;DHT22;17436;50.338;8.810;2022-08-03T06:04:22;22.70;3.70
20438;DHT22;17436;50.338;8.810;2022-08-03T06:06:49;22.80;3.00
20438;DHT22;17436;50.338;8.810;2022-08-03T06:09:17;22.70;5.00
20438;DHT22;17436;50.338;8.810;2022-08-03T06:11:45;22.90;3.40
20438;DHT22;17436;50.338;8.810;2022-08-03T06:14:11;22.60;4.90
20438;DHT22;17436;50.338;8.810;2022-08-03T06:16:39;22.40;5.30
20438;DHT22;17436;50.338;8.810;2022-08-03T06:19:06;22.70;4.10
20438;DHT22;17436;50.338;8.810;2022-08-03T06:21:33;23.00;2.20
20438;DHT22;17436;50.338;8.810;2022-08-03T06:24:00;23.20;2.10
20438;DHT22;17436;50.338;8.810;2022-08-03T06:26:26;23.50;1.00
20438;DHT22;17436;50.338;8.810;2022-08-03T06:28:54;23.50;1.00
20438;DHT22;17436;50.338;8.810;2022-08-03T06:31:25;23.70;1.00
20438;DHT22;17436;50.338;8.810;2022-08-03T06:33:55;23.80;1.00
20438;DHT22;17436;50.338;8.810;2022-08-03T06:36:22;24.10;1.00
20438;DHT22;17436;50.338;8.810;2022-08-03T06:38:50;24.20;1.00
20438;DHT22;17436;50.338;8.810;2022-08-03T06:41:17;24.20;1.00
20438;DHT22;17436;50.338;8.810;2022-08-03T06:43:44;24.30;1.00
20438;DHT22;17436;50.338;8.810;2022-08-03T06:46:11;24.40;1.00
20438;DHT22;17436;50.338;8.810;2022-08-03T06:48:37;24.20;1.00
20438;DHT22;17436;50.338;8.810;2022-08-03T06:51:05;24.50;1.00
20438;DHT22;17436;50.338;8.810;2022-08-03T06:53:33;24.60;1.00
20438;DHT22;17436;50.338;8.810;2022-08-03T06:55:59;24.70;1.00
20438;DHT22;17436;50.338;8.810;2022-08-03T06:58:26;25.10;1.00
20438;DHT22;17436;50.338;8.810;2022-08-03T07:00:53;25.30;1.00
20438;DHT22;17436;50.338;8.810;2022-08-03T07:03:19;25.30;1.00
20438;DHT22;17436;50.338;8.810;2022-08-03T07:05:46;25.50;1.00
20438;DHT22;17436;50.338;8.810;2022-08-03T07:08:15;25.60;1.00
20438;DHT22;17436;50.338;8.810;2022-08-03T07:10:42;25.80;1.00
20438;DHT22;17436;50.338;8.810;2022-08-03T07:13:09;25.90;1.00
20438;DHT22;17436;50.338;8.810;2022-08-03T07:15:36;25.90;1.00
20438;DHT22;17436;50.338;8.810;2022-08-03T07:18:03;26.00;1.00
20438;DHT22;17436;50.338;8.810;2022-08-03T07:20:31;26.00;1.00
20438;DHT22;17436;50.338;8.810;2022-08-03T07:22:58;26.20;1.00
20438;DHT22;17436;50.338;8.810;2022-08-03T07:25:27;26.10;1.00
20438;DHT22;17436;50.338;8.810;2022-08-03T07:27:54;26.40;1.00
20438;DHT22;17436;50.338;8.810;2022-08-03T07:30:21;26.60;1.00
20438;DHT22;17436;50.338;8.810;2022-08-03T07:32:48;26.70;1.00
20438;DHT22;17436;50.338;8.810;2022-08-03T07:35:15;26.70;1.00
20438;DHT22;17436;50.338;8.810;2022-08-03T07:37:43;26.90;1.00
20438;DHT22;17436;50.338;8.810;2022-08-03T07:40:10;27.20;1.00
20438;DHT22;17436;50.338;8.810;2022-08-03T07:42:38;27.20;1.00
20438;DHT22;17436;50.338;8.810;2022-08-03T07:45:06;27.30;1.00
20438;DHT22;17436;50.338;8.810;2022-08-03T07:47:39;27.30;1.00
20438;DHT22;17436;50.338;8.810;2022-08-03T07:50:08;27.50;1.00
20438;DHT22;17436;50.338;8.810;2022-08-03T07:52:35;27.70;1.00
20438;DHT22;17436;50.338;8.810;2022-08-03T07:55:14;27.80;1.00
20438;DHT22;17436;50.338;8.810;2022-08-03T07:57:42;27.80;1.00
20438;DHT22;17436;50.338;8.810;2022-08-03T08:00:13;28.10;1.00
20438;DHT22;17436;50.338;8.810;2022-08-03T08:02:41;28.70;1.00
20438;DHT22;17436;50.338;8.810;2022-08-03T08:05:09;28.80;1.00
20438;DHT22;17436;50.338;8.810;2022-08-03T08:07:37;28.90;1.00
20438;DHT22;17436;50.338;8.810;2022-08-03T08:10:04;29.50;1.00
20438;DHT22;17436;50.338;8.810;2022-08-03T08:12:31;29.60;1.00
20438;DHT22;17436;50.338;8.810;2022-08-03T08:14:59;29.50;1.00
20438;DHT22;17436;50.338;8.810;2022-08-03T08:17:26;29.40;1.00
20438;DHT22;17436;50.338;8.810;2022-08-03T08:19:53;29.30;1.00
20438;DHT22;17436;50.338;8.810;2022-08-03T08:22:28;32.20;1.00
20438;DHT22;17436;50.338;8.810;2022-08-03T08:24:55;36.60;1.00
20438;DHT22;17436;50.338;8.810;2022-08-03T08:27:21;39.00;1.00
20438;DHT22;17436;50.338;8.810;2022-08-03T08:29:48;40.20;1.00
20438;DHT22;17436;50.338;8.810;2022-08-03T08:32:16;39.30;1.00
20438;DHT22;17436;50.338;8.810;2022-08-03T08:34:43;35.10;1.00
20438;DHT22;17436;50.338;8.810;2022-08-03T08:37:10;32.50;1.00
20438;DHT22;17436;50.338;8.810;2022-08-03T08:39:37;31.00;1.00
20438;DHT22;17436;50.338;8.810;2022-08-03T08:42:03;30.10;1.00
20438;DHT22;17436;50.338;8.810;2022-08-03T08:44:30;29.90;1.00
20438;DHT22;17436;50.338;8.810;2022-08-03T08:47:24;29.60;1.00
20438;DHT22;17436;50.338;8.810;2022-08-03T08:49:52;29.70;1.00
20438;DHT22;17436;50.338;8.810;2022-08-03T08:52:25;29.80;1.00
20438;DHT22;17436;50.338;8.810;2022-08-03T08:54:55;29.80;1.00
20438;DHT22;17436;50.338;8.810;2022-08-03T08:57:27;29.90;1.00
20438;DHT22;17436;50.338;8.810;2022-08-03T08:59:55;30.10;1.00
20438;DHT22;17436;50.338;8.810;2022-08-03T09:02:23;30.00;1.00
20438;DHT22;17436;50.338;8.810;2022-08-03T09:04:51;29.80;1.00
20438;DHT22;17436;50.338;8.810;2022-08-03T09:07:18;29.80;1.00
20438;DHT22;17436;50.338;8.810;2022-08-03T09:09:45;29.90;1.00
20438;DHT22;17436;50.338;8.810;2022-08-03T09:12:13;30.10;1.00
20438;DHT22;17436;50.338;8.810;2022-08-03T09:14:41;30.10;1.00
20438;DHT22;17436;50.338;8.810;2022-08-03T09:17:08;30.30;1.00
20438;DHT22;17436;50.338;8.810;2022-08-03T09:19:36;30.30;1.00
20438;DHT22;17436;50.338;8.810;2022-08-03T09:22:07;30.40;1.00
20438;DHT22;17436;50.338;8.810;2022-08-03T09:24:35;30.10;1.00
20438;DHT22;17436;50.338;8.810;2022-08-03T09:27:04;30.40;1.00
20438;DHT22;17436;50.338;8.810;2022-08-03T09:29:32;30.30;1.00
20438;DHT22;17436;50.338;8.810;2022-08-03T09:32:00;30.50;1.00
20438;DHT22;17436;50.338;8.810;2022-08-03T09:34:28;30.20;1.00
20438;DHT22;17436;50.338;8.810;2022-08-03T09:36:56;30.40;1.00
20438;DHT22;17436;50.338;8.810;2022-08-03T09:39:25;30.70;1.00
20438;DHT22;17436;50.338;8.810;2022-08-03T09:42:04;30.60;1.00
20438;DHT22;17436;50.338;8.810;2022-08-03T09:44:33;30.90;1.00
20438;DHT22;17436;50.338;8.810;2022-08-03T09:47:01;31.00;1.00
20438;DHT22;17436;50.338;8.810;2022-08-03T09:49:28;31.00;1.00
20438;DHT22;17436;50.338;8.810;2022-08-03T09:51:56;31.20;1.00
20438;DHT22;17436;50.338;8.810;2022-08-03T09:54:31;31.20;1.00
20438;DHT22;17436;50.338;8.810;2022-08-03T09:56:58;31.10;1.00
20438;DHT22;17436;50.338;8.810;2022-08-03T09:59:27;30.90;1.00
20438;DHT22;17436;50.338;8.810;2022-08-03T10:01:55;30.90;1.00
20438;DHT22;17436;50.338;8.810;2022-08-03T10:04:24;31.00;1.00
20438;DHT22;17436;50.338;8.810;2022-08-03T10:07:05;31.40;1.00
20438;DHT22;17436;50.338;8.810;2022-08-03T10:09:32;31.60;1.00
20438;DHT22;17436;50.338;8.810;2022-08-03T10:12:07;31.30;1.00
20438;DHT22;17436;50.338;8.810;2022-08-03T10:14:36;31.20;1.00
20438;DHT22;17436;50.338;8.810;2022-08-03T10:17:03;30.80;1.00
20438;DHT22;17436;50.338;8.810;2022-08-03T10:19:30;31.00;1.00
20438;DHT22;17436;50.338;8.810;2022-08-03T10:22:04;31.40;1.00
20438;DHT22;17436;50.338;8.810;2022-08-03T10:24:34;31.30;1.00
20438;DHT22;17436;50.338;8.810;2022-08-03T10:27:03;31.10;1.00
20438;DHT22;17436;50.338;8.810;2022-08-03T10:29:36;31.00;1.00
20438;DHT22;17436;50.338;8.810;2022-08-03T10:32:06;31.20;1.00
20438;DHT22;17436;50.338;8.810;2022-08-03T10:34:37;31.40;1.00
20438;DHT22;17436;50.338;8.810;2022-08-03T10:37:10;31.10;1.00
20438;DHT22;17436;50.338;8.810;2022-08-03T10:39:37;30.90;1.00
20438;DHT22;17436;50.338;8.810;2022-08-03T10:42:22;31.10;1.00
20438;DHT22;17436;50.338;8.810;2022-08-03T10:44:54;31.40;1.00
20438;DHT22;17436;50.338;8.810;2022-08-03T10:47:21;31.20;1.00
20438;DHT22;17436;50.338;8.810;2022-08-03T10:49:48;31.30;1.00
20438;DHT22;17436;50.338;8.810;2022-08-03T10:52:18;31.60;1.00
20438;DHT22;17436;50.338;8.810;2022-08-03T10:54:46;31.70;1.00
20438;DHT22;17436;50.338;8.810;2022-08-03T10:57:47;31.80;1.00
20438;DHT22;17436;50.338;8.810;2022-08-03T11:00:15;31.80;1.00
20438;DHT22;17436;50.338;8.810;2022-08-03T11:03:02;31.70;1.00
20438;DHT22;17436;50.338;8.810;2022-08-03T11:05:32;31.40;1.00
20438;DHT22;17436;50.338;8.810;2022-08-03T11:08:29;31.50;1.00
20438;DHT22;17436;50.338;8.810;2022-08-03T11:10:58;31.50;1.00
20438;DHT22;17436;50.338;8.810;2022-08-03T11:13:27;31.40;1.00
20438;DHT22;17436;50.338;8.810;2022-08-03T11:16:00;31.40;1.00
20438;DHT22;17436;50.338;8.810;2022-08-03T11:18:27;31.30;1.00
20438;DHT22;17436;50.338;8.810;2022-08-03T11:20:55;31.40;1.00
20438;DHT22;17436;50.338;8.810;2022-08-03T11:23:45;31.50;1.00
20438;DHT22;17436;50.338;8.810;2022-08-03T11:26:14;31.60;1.00
20438;DHT22;17436;50.338;8.810;2022-08-03T11:28:42;31.60;1.00
20438;DHT22;17436;50.338;8.810;2022-08-03T11:34:22;31.50;1.00
20438;DHT22;17436;50.338;8.810;2022-08-03T11:37:19;31.60;1.00
20438;DHT22;17436;50.338;8.810;2022-08-03T11:39:50;31.40;1.00
20438;DHT22;17436;50.338;8.810;2022-08-03T11:42:41;31.80;1.00
20438;DHT22;17436;50.338;8.810;2022-08-03T11:45:13;31.50;1.00
20438;DHT22;17436;50.338;8.810;2022-08-03T11:47:41;31.60;1.00
20438;DHT22;17436;50.338;8.810;2022-08-03T11:50:09;31.50;1.00
20438;DHT22;17436;50.338;8.810;2022-08-03T11:52:39;31.50;1.00
20438;DHT22;17436;50.338;8.810;2022-08-03T11:55:13;31.40;1.00
20438;DHT22;17436;50.338;8.810;2022-08-03T11:57:40;31.60;1.00
20438;DHT22;17436;50.338;8.810;2022-08-03T12:00:21;31.50;1.00
20438;DHT22;17436;50.338;8.810;2022-08-03T12:02:56;31.40;1.00
20438;DHT22;17436;50.338;8.810;2022-08-03T12:05:36;31.00;1.00
20438;DHT22;17436;50.338;8.810;2022-08-03T12:08:03;31.00;1.00
20438;DHT22;17436;50.338;8.810;2022-08-03T12:10:32;31.10;1.00
20438;DHT22;17436;50.338;8.810;2022-08-03T12:13:00;31.30;1.00
20438;DHT22;17436;50.338;8.810;2022-08-03T12:15:28;31.50;1.00
20438;DHT22;17436;50.338;8.810;2022-08-03T12:17:56;31.50;1.00
20438;DHT22;17436;50.338;8.810;2022-08-03T12:20:24;31.40;1.00
20438;DHT22;17436;50.338;8.810;2022-08-03T12:22:51;31.30;1.00
20438;DHT22;17436;50.338;8.810;2022-08-03T12:25:22;31.20;1.00
20438;DHT22;17436;50.338;8.810;2022-08-03T12:27:52;31.10;1.00
20438;DHT22;17436;50.338;8.810;2022-08-03T12:30:19;31.00;1.00
20438;DHT22;17436;50.338;8.810;2022-08-03T12:32:46;30.70;1.00
20438;DHT22;17436;50.338;8.810;2022-08-03T12:35:21;30.70;1.00
20438;DHT22;17436;50.338;8.810;2022-08-03T12:37:48;30.80;1.00
20438;DHT22;17436;50.338;8.810;2022-08-03T12:40:23;31.40;1.00
20438;DHT22;17436;50.338;8.810;2022-08-03T12:42:52;31.40;1.00
20438;DHT22;17436;50.338;8.810;2022-08-03T12:45:22;31.30;1.00
20438;DHT22;17436;50.338;8.810;2022-08-03T12:47:52;31.20;1.00
20438;DHT22;17436;50.338;8.810;2022-08-03T12:50:29;31.30;1.00
20438;DHT22;17436;50.338;8.810;2022-08-03T12:52:56;31.20;1.00
20438;DHT22;17436;50.338;8.810;2022-08-03T12:55:25;30.90;1.00
20438;DHT22;17436;50.338;8.810;2022-08-03T12:57:59;30.80;1.00
20438;DHT22;17436;50.338;8.810;2022-08-03T13:00:26;31.00;1.00
20438;DHT22;17436;50.338;8.810;2022-08-03T13:02:58;31.00;1.00
20438;DHT22;17436;50.338;8.810;2022-08-03T13:05:28;30.90;1.00
20438;DHT22;17436;50.338;8.810;2022-08-03T13:07:55;30.60;1.00
20438;DHT22;17436;50.338;8.810;2022-08-03T13:10:29;30.70;1.00
20438;DHT22;17436;50.338;8.810;2022-08-03T13:12:58;30.70;1.00
20438;DHT22;17436;50.338;8.810;2022-08-03T13:15:28;30.90;1.00
20438;DHT22;17436;50.338;8.810;2022-08-03T13:17:55;31.30;1.00
20438;DHT22;17436;50.338;8.810;2022-08-03T13:20:22;31.10;1.00
20438;DHT22;17436;50.338;8.810;2022-08-03T13:22:50;31.20;1.00
20438;DHT22;17436;50.338;8.810;2022-08-03T13:25:17;31.00;1.00
20438;DHT22;17436;50.338;8.810;2022-08-03T13:27:45;30.80;1.00
20438;DHT22;17436;50.338;8.810;2022-08-03T13:30:14;30.70;1.00
20438;DHT22;17436;50.338;8.810;2022-08-03T13:32:41;30.70;1.00
20438;DHT22;17436;50.338;8.810;2022-08-03T13:35:08;30.50;1.00
20438;DHT22;17436;50.338;8.810;2022-08-03T13:37:35;30.40;1.00
20438;DHT22;17436;50.338;8.810;2022-08-03T13:40:04;30.60;1.00
20438;DHT22;17436;50.338;8.810;2022-08-03T13:42:33;30.70;1.00
20438;DHT22;17436;50.338;8.810;2022-08-03T13:45:01;30.50;1.00
20438;DHT22;17436;50.338;8.810;2022-08-03T13:47:29;30.50;1.00
20438;DHT22;17436;50.338;8.810;2022-08-03T13:49:55;30.80;1.00
20438;DHT22;17436;50.338;8.810;2022-08-03T13:52:22;30.70;1.00
20438;DHT22;17436;50.338;8.810;2022-08-03T13:54:49;30.40;1.00
20438;DHT22;17436;50.338;8.810;2022-08-03T13:57:16;30.30;1.00
20438;DHT22;17436;50.338;8.810;2022-08-03T13:59:43;30.80;1.00
20438;DHT22;17436;50.338;8.810;2022-08-03T14:02:10;31.00;1.00
20438;DHT22;17436;50.338;8.810;2022-08-03T14:04:38;30.80;1.00
20438;DHT22;17436;50.338;8.810;2022-08-03T14:07:05;30.70;1.00
20438;DHT22;17436;50.338;8.810;2022-08-03T14:09:32;30.40;1.00
20438;DHT22;17436;50.338;8.810;2022-08-03T14:11:59;30.30;1.00
20438;DHT22;17436;50.338;8.810;2022-08-03T14:14:26;30.30;1.00
20438;DHT22;17436;50.338;8.810;2022-08-03T14:16:52;30.50;1.00
20438;DHT22;17436;50.338;8.810;2022-08-03T14:19:20;30.50;1.00
20438;DHT22;17436;50.338;8.810;2022-08-03T14:21:49;30.40;1.00
20438;DHT22;17436;50.338;8.810;2022-08-03T14:24:16;30.50;1.00
20438;DHT22;17436;50.338;8.810;2022-08-03T14:26:43;30.70;1.00
20438;DHT22;17436;50.338;8.810;2022-08-03T14:29:10;30.60;1.00
20438;DHT22;17436;50.338;8.810;2022-08-03T14:31:37;30.40;1.00
20438;DHT22;17436;50.338;8.810;2022-08-03T14:34:04;30.30;1.00
20438;DHT22;17436;50.338;8.810;2022-08-03T14:36:32;30.10;1.00
20438;DHT22;17436;50.338;8.810;2022-08-03T14:39:01;30.80;1.00
20438;DHT22;17436;50.338;8.810;2022-08-03T14:41:27;30.90;1.00
20438;DHT22;17436;50.338;8.810;2022-08-03T14:43:54;30.80;1.00
20438;DHT22;17436;50.338;8.810;2022-08-03T14:46:21;30.50;1.00
20438;DHT22;17436;50.338;8.810;2022-08-03T14:48:48;30.30;1.00
20438;DHT22;17436;50.338;8.810;2022-08-03T14:51:16;30.50;1.00
20438;DHT22;17436;50.338;8.810;2022-08-03T14:53:43;30.70;1.00
20438;DHT22;17436;50.338;8.810;2022-08-03T14:56:12;30.70;1.00
20438;DHT22;17436;50.338;8.810;2022-08-03T14:58:38;30.40;1.00
20438;DHT22;17436;50.338;8.810;2022-08-03T15:01:06;30.40;1.00
20438;DHT22;17436;50.338;8.810;2022-08-03T15:03:33;30.30;1.00
20438;DHT22;17436;50.338;8.810;2022-08-03T15:05:59;30.50;1.00
20438;DHT22;17436;50.338;8.810;2022-08-03T15:08:26;30.30;1.00
20438;DHT22;17436;50.338;8.810;2022-08-03T15:10:53;30.30;1.00
20438;DHT22;17436;50.338;8.810;2022-08-03T15:13:23;30.50;1.00
20438;DHT22;17436;50.338;8.810;2022-08-03T15:15:51;30.30;1.00
20438;DHT22;17436;50.338;8.810;2022-08-03T15:18:18;30.20;1.00
20438;DHT22;17436;50.338;8.810;2022-08-03T15:20:45;30.30;1.00
20438;DHT22;17436;50.338;8.810;2022-08-03T15:23:14;30.30;1.00
20438;DHT22;17436;50.338;8.810;2022-08-03T15:25:43;30.20;1.00
20438;DHT22;17436;50.338;8.810;2022-08-03T15:28:11;30.10;1.00
20438;DHT22;17436;50.338;8.810;2022-08-03T15:30:39;30.10;1.00
20438;DHT22;17436;50.338;8.810;2022-08-03T15:33:08;30.20;1.00
20438;DHT22;17436;50.338;8.810;2022-08-03T15:35:36;30.50;1.00
20438;DHT22;17436;50.338;8.810;2022-08-03T15:38:03;30.80;1.00
20438;DHT22;17436;50.338;8.810;2022-08-03T15:40:29;30.90;1.00
20438;DHT22;17436;50.338;8.810;2022-08-03T15:42:59;30.80;1.00
20438;DHT22;17436;50.338;8.810;2022-08-03T15:45:26;30.50;1.00
20438;DHT22;17436;50.338;8.810;2022-08-03T15:47:55;30.20;1.00
20438;DHT22;17436;50.338;8.810;2022-08-03T15:50:21;30.50;1.00
20438;DHT22;17436;50.338;8.810;2022-08-03T15:52:48;30.30;1.00
20438;DHT22;17436;50.338;8.810;2022-08-03T15:55:16;30.20;1.00
20438;DHT22;17436;50.338;8.810;2022-08-03T15:57:44;30.10;1.00
20438;DHT22;17436;50.338;8.810;2022-08-03T16:00:12;30.20;1.00
20438;DHT22;17436;50.338;8.810;2022-08-03T16:02:38;30.20;1.00